sensor_id;sensor_type;location;lat;lon;timestamp;P1;durP1;ratioP1;P2;durP2;ratioP2
20480;SDS011;10399;50.754;3.366;2023-11-19T00:00:09;34.38;;;5.53;;
20480;SDS011;10399;50.754;3.366;2023-11-19T00:02:42;26.88;;;5.38;;
20480;SDS011;10399;50.754;3.366;2023-11-19T00:05:10;36.33;;;5.53;;
20480;SDS011;10399;50.754;3.366;2023-11-19T00:07:40;31.83;;;4.93;;
20480;SDS011;10399;50.754;3.366;2023-11-19T00:10:09;43.47;;;7.15;;
20480;SDS011;10399;50.754;3.366;2023-11-19T00:12:38;31.83;;;6.45;;
20480;SDS011;10399;50.754;3.366;2023-11-19T00:15:07;34.40;;;5.88;;
20480;SDS011;10399;50.754;3.366;2023-11-19T00:17:39;31.10;;;5.22;;
20480;SDS011;10399;50.754;3.366;2023-11-19T00:20:07;26.15;;;4.43;;
20480;SDS011;10399;50.754;3.366;2023-11-19T00:22:35;34.65;;;4.70;;
20480;SDS011;10399;50.754;3.366;2023-11-19T00:25:02;28.20;;;4.30;;
20480;SDS011;10399;50.754;3.366;2023-11-19T00:27:30;27.58;;;4.10;;
20480;SDS011;10399;50.754;3.366;2023-11-19T00:29:57;25.52;;;4.53;;
20480;SDS011;10399;50.754;3.366;2023-11-19T00:32:24;29.88;;;4.65;;
20480;SDS011;10399;50.754;3.366;2023-11-19T00:34:52;33.88;;;5.30;;
20480;SDS011;10399;50.754;3.366;2023-11-19T00:37:24;25.88;;;4.38;;
20480;SDS011;10399;50.754;3.366;2023-11-19T00:39:51;30.08;;;5.15;;
20480;SDS011;10399;50.754;3.366;2023-11-19T00:42:19;29.73;;;5.07;;
20480;SDS011;10399;50.754;3.366;2023-11-19T00:44:47;22.58;;;4.05;;
20480;SDS011;10399;50.754;3.366;2023-11-19T00:47:17;29.27;;;4.25;;
20480;SDS011;10399;50.754;3.366;2023-11-19T00:49:47;23.95;;;3.83;;
20480;SDS011;10399;50.754;3.366;2023-11-19T00:52:18;30.05;;;4.55;;
20480;SDS011;10399;50.754;3.366;2023-11-19T00:54:46;30.38;;;4.00;;
20480;SDS011;10399;50.754;3.366;2023-11-19T00:57:13;24.25;;;4.30;;
20480;SDS011;10399;50.754;3.366;2023-11-19T00:59:42;31.92;;;4.90;;
20480;SDS011;10399;50.754;3.366;2023-11-19T01:02:10;27.45;;;4.43;;
20480;SDS011;10399;50.754;3.366;2023-11-19T01:04:37;20.25;;;3.53;;
20480;SDS011;10399;50.754;3.366;2023-11-19T01:07:05;26.27;;;4.30;;
20480;SDS011;10399;50.754;3.366;2023-11-19T01:09:33;30.38;;;4.55;;
20480;SDS011;10399;50.754;3.366;2023-11-19T01:12:01;28.40;;;4.60;;
20480;SDS011;10399;50.754;3.366;2023-11-19T01:14:29;32.08;;;4.30;;
20480;SDS011;10399;50.754;3.366;2023-11-19T01:16:57;32.35;;;4.30;;
20480;SDS011;10399;50.754;3.366;2023-11-19T01:19:24;27.40;;;4.20;;
20480;SDS011;10399;50.754;3.366;2023-11-19T01:21:52;26.52;;;4.88;;
20480;SDS011;10399;50.754;3.366;2023-11-19T01:24:20;35.17;;;4.82;;
20480;SDS011;10399;50.754;3.366;2023-11-19T01:26:47;30.88;;;5.07;;
20480;SDS011;10399;50.754;3.366;2023-11-19T01:29:15;28.90;;;5.25;;
20480;SDS011;10399;50.754;3.366;2023-11-19T01:31:42;29.55;;;5.10;;
20480;SDS011;10399;50.754;3.366;2023-11-19T01:34:11;26.73;;;4.20;;
20480;SDS011;10399;50.754;3.366;2023-11-19T01:36:39;29.33;;;4.30;;
20480;SDS011;10399;50.754;3.366;2023-11-19T01:39:06;25.77;;;4.82;;
20480;SDS011;10399;50.754;3.366;2023-11-19T01:41:36;28.88;;;4.75;;
20480;SDS011;10399;50.754;3.366;2023-11-19T01:44:08;31.25;;;5.40;;
20480;SDS011;10399;50.754;3.366;2023-11-19T01:46:35;30.40;;;4.97;;
20480;SDS011;10399;50.754;3.366;2023-11-19T01:49:03;34.05;;;4.85;;
20480;SDS011;10399;50.754;3.366;2023-11-19T01:51:31;32.33;;;4.72;;
20480;SDS011;10399;50.754;3.366;2023-11-19T01:53:58;40.30;;;6.05;;
20480;SDS011;10399;50.754;3.366;2023-11-19T01:56:26;36.05;;;7.43;;
20480;SDS011;10399;50.754;3.366;2023-11-19T01:58:54;41.70;;;6.05;;
20480;SDS011;10399;50.754;3.366;2023-11-19T02:01:23;33.80;;;5.72;;
20480;SDS011;10399;50.754;3.366;2023-11-19T02:03:51;39.40;;;5.60;;
20480;SDS011;10399;50.754;3.366;2023-11-19T02:06:18;34.20;;;4.88;;
20480;SDS011;10399;50.754;3.366;2023-11-19T02:08:46;35.97;;;5.53;;
20480;SDS011;10399;50.754;3.366;2023-11-19T02:11:13;27.80;;;4.68;;
20480;SDS011;10399;50.754;3.366;2023-11-19T02:13:40;32.90;;;5.22;;
20480;SDS011;10399;50.754;3.366;2023-11-19T02:16:08;35.42;;;4.80;;
20480;SDS011;10399;50.754;3.366;2023-11-19T02:18:38;27.65;;;4.00;;
20480;SDS011;10399;50.754;3.366;2023-11-19T02:21:05;36.80;;;5.97;;
20480;SDS011;10399;50.754;3.366;2023-11-19T02:23:32;30.95;;;4.80;;
20480;SDS011;10399;50.754;3.366;2023-11-19T02:26:02;31.10;;;4.97;;
20480;SDS011;10399;50.754;3.366;2023-11-19T02:28:30;29.98;;;4.63;;
20480;SDS011;10399;50.754;3.366;2023-11-19T02:30:57;22.75;;;4.65;;
20480;SDS011;10399;50.754;3.366;2023-11-19T02:33:24;36.25;;;5.57;;
20480;SDS011;10399;50.754;3.366;2023-11-19T02:35:51;28.20;;;4.97;;
20480;SDS011;10399;50.754;3.366;2023-11-19T02:38:18;41.53;;;4.88;;
20480;SDS011;10399;50.754;3.366;2023-11-19T02:40:46;32.90;;;5.00;;
20480;SDS011;10399;50.754;3.366;2023-11-19T02:43:14;32.80;;;4.40;;
20480;SDS011;10399;50.754;3.366;2023-11-19T02:45:41;30.55;;;4.65;;
20480;SDS011;10399;50.754;3.366;2023-11-19T02:48:12;34.85;;;5.00;;
20480;SDS011;10399;50.754;3.366;2023-11-19T02:50:41;32.08;;;5.45;;
20480;SDS011;10399;50.754;3.366;2023-11-19T02:53:09;25.70;;;4.65;;
20480;SDS011;10399;50.754;3.366;2023-11-19T02:55:37;32.35;;;4.70;;
20480;SDS011;10399;50.754;3.366;2023-11-19T02:58:07;31.88;;;5.78;;
20480;SDS011;10399;50.754;3.366;2023-11-19T03:00:46;39.22;;;5.38;;
20480;SDS011;10399;50.754;3.366;2023-11-19T03:03:37;34.40;;;5.20;;
20480;SDS011;10399;50.754;3.366;2023-11-19T03:06:05;36.90;;;5.10;;
20480;SDS011;10399;50.754;3.366;2023-11-19T03:08:34;42.22;;;5.22;;
20480;SDS011;10399;50.754;3.366;2023-11-19T03:11:02;39.50;;;6.40;;
20480;SDS011;10399;50.754;3.366;2023-11-19T03:13:31;42.47;;;6.38;;
20480;SDS011;10399;50.754;3.366;2023-11-19T03:15:58;26.42;;;4.72;;
20480;SDS011;10399;50.754;3.366;2023-11-19T03:18:25;30.88;;;5.07;;
20480;SDS011;10399;50.754;3.366;2023-11-19T03:20:53;36.90;;;5.75;;
20480;SDS011;10399;50.754;3.366;2023-11-19T03:23:20;40.28;;;7.53;;
20480;SDS011;10399;50.754;3.366;2023-11-19T03:25:48;40.78;;;5.05;;
20480;SDS011;10399;50.754;3.366;2023-11-19T03:28:14;34.70;;;5.28;;
20480;SDS011;10399;50.754;3.366;2023-11-19T03:30:41;27.38;;;4.57;;
20480;SDS011;10399;50.754;3.366;2023-11-19T03:33:08;34.50;;;5.50;;
20480;SDS011;10399;50.754;3.366;2023-11-19T03:35:35;36.15;;;6.00;;
20480;SDS011;10399;50.754;3.366;2023-11-19T03:38:02;36.05;;;5.28;;
20480;SDS011;10399;50.754;3.366;2023-11-19T03:40:30;31.60;;;5.68;;
20480;SDS011;10399;50.754;3.366;2023-11-19T03:43:03;48.72;;;6.97;;
20480;SDS011;10399;50.754;3.366;2023-11-19T03:49:14;27.25;;;4.95;;
20480;SDS011;10399;50.754;3.366;2023-11-19T03:52:09;43.33;;;7.22;;
20480;SDS011;10399;50.754;3.366;2023-11-19T03:54:54;37.83;;;5.70;;
20480;SDS011;10399;50.754;3.366;2023-11-19T03:57:22;40.95;;;6.43;;
20480;SDS011;10399;50.754;3.366;2023-11-19T03:59:50;39.30;;;5.75;;
20480;SDS011;10399;50.754;3.366;2023-11-19T04:02:17;40.47;;;6.28;;
20480;SDS011;10399;50.754;3.366;2023-11-19T04:04:44;47.40;;;6.47;;
20480;SDS011;10399;50.754;3.366;2023-11-19T04:07:11;37.10;;;6.03;;
20480;SDS011;10399;50.754;3.366;2023-11-19T04:09:38;39.05;;;6.35;;
20480;SDS011;10399;50.754;3.366;2023-11-19T04:12:05;42.70;;;6.05;;
20480;SDS011;10399;50.754;3.366;2023-11-19T04:14:33;41.60;;;6.55;;
20480;SDS011;10399;50.754;3.366;2023-11-19T04:17:00;35.78;;;6.07;;
20480;SDS011;10399;50.754;3.366;2023-11-19T04:19:27;40.38;;;6.38;;
20480;SDS011;10399;50.754;3.366;2023-11-19T04:21:54;38.97;;;5.55;;
20480;SDS011;10399;50.754;3.366;2023-11-19T04:24:21;36.72;;;5.70;;
20480;SDS011;10399;50.754;3.366;2023-11-19T04:26:48;39.60;;;5.55;;
20480;SDS011;10399;50.754;3.366;2023-11-19T04:29:15;41.35;;;5.82;;
20480;SDS011;10399;50.754;3.366;2023-11-19T04:31:43;36.55;;;6.40;;
20480;SDS011;10399;50.754;3.366;2023-11-19T04:34:11;45.38;;;7.70;;
20480;SDS011;10399;50.754;3.366;2023-11-19T04:36:39;44.00;;;6.80;;
20480;SDS011;10399;50.754;3.366;2023-11-19T04:39:06;54.25;;;6.75;;
20480;SDS011;10399;50.754;3.366;2023-11-19T04:41:35;37.20;;;5.95;;
20480;SDS011;10399;50.754;3.366;2023-11-19T04:44:03;41.00;;;6.30;;
20480;SDS011;10399;50.754;3.366;2023-11-19T04:46:30;58.97;;;6.97;;
20480;SDS011;10399;50.754;3.366;2023-11-19T04:48:57;44.95;;;6.70;;
20480;SDS011;10399;50.754;3.366;2023-11-19T04:51:24;49.95;;;7.40;;
20480;SDS011;10399;50.754;3.366;2023-11-19T04:53:51;51.78;;;6.75;;
20480;SDS011;10399;50.754;3.366;2023-11-19T04:56:18;42.53;;;7.18;;
20480;SDS011;10399;50.754;3.366;2023-11-19T04:58:46;48.45;;;8.05;;
20480;SDS011;10399;50.754;3.366;2023-11-19T05:01:14;49.83;;;6.70;;
20480;SDS011;10399;50.754;3.366;2023-11-19T05:03:44;37.15;;;6.10;;
20480;SDS011;10399;50.754;3.366;2023-11-19T05:06:12;51.65;;;7.20;;
20480;SDS011;10399;50.754;3.366;2023-11-19T05:08:39;38.72;;;6.32;;
20480;SDS011;10399;50.754;3.366;2023-11-19T05:11:06;49.33;;;6.43;;
20480;SDS011;10399;50.754;3.366;2023-11-19T05:13:33;51.90;;;6.32;;
20480;SDS011;10399;50.754;3.366;2023-11-19T05:16:00;34.90;;;6.32;;
20480;SDS011;10399;50.754;3.366;2023-11-19T05:18:27;41.13;;;5.70;;
20480;SDS011;10399;50.754;3.366;2023-11-19T05:20:54;50.22;;;7.03;;
20480;SDS011;10399;50.754;3.366;2023-11-19T05:23:21;38.58;;;6.30;;
20480;SDS011;10399;50.754;3.366;2023-11-19T05:25:48;38.92;;;6.32;;
20480;SDS011;10399;50.754;3.366;2023-11-19T05:28:15;51.75;;;6.97;;
20480;SDS011;10399;50.754;3.366;2023-11-19T05:30:42;42.08;;;6.68;;
20480;SDS011;10399;50.754;3.366;2023-11-19T05:33:09;48.53;;;6.68;;
20480;SDS011;10399;50.754;3.366;2023-11-19T05:35:36;42.13;;;7.70;;
20480;SDS011;10399;50.754;3.366;2023-11-19T05:38:03;38.88;;;7.25;;
20480;SDS011;10399;50.754;3.366;2023-11-19T05:40:32;44.45;;;6.50;;
20480;SDS011;10399;50.754;3.366;2023-11-19T05:42:59;52.40;;;6.60;;
20480;SDS011;10399;50.754;3.366;2023-11-19T05:45:26;42.15;;;6.72;;
20480;SDS011;10399;50.754;3.366;2023-11-19T05:47:54;43.60;;;6.55;;
20480;SDS011;10399;50.754;3.366;2023-11-19T05:50:21;48.97;;;7.15;;
20480;SDS011;10399;50.754;3.366;2023-11-19T05:52:49;47.70;;;7.28;;
20480;SDS011;10399;50.754;3.366;2023-11-19T05:55:16;44.85;;;7.20;;
20480;SDS011;10399;50.754;3.366;2023-11-19T05:57:43;45.40;;;6.50;;
20480;SDS011;10399;50.754;3.366;2023-11-19T06:00:12;39.03;;;6.57;;
20480;SDS011;10399;50.754;3.366;2023-11-19T06:02:42;45.08;;;6.72;;
20480;SDS011;10399;50.754;3.366;2023-11-19T06:05:09;44.88;;;7.75;;
20480;SDS011;10399;50.754;3.366;2023-11-19T06:07:36;47.90;;;6.88;;
20480;SDS011;10399;50.754;3.366;2023-11-19T06:10:05;37.22;;;5.78;;
20480;SDS011;10399;50.754;3.366;2023-11-19T06:12:33;38.55;;;6.97;;
20480;SDS011;10399;50.754;3.366;2023-11-19T06:15:04;37.65;;;5.80;;
20480;SDS011;10399;50.754;3.366;2023-11-19T06:17:32;44.58;;;8.18;;
20480;SDS011;10399;50.754;3.366;2023-11-19T06:19:59;36.53;;;6.50;;
20480;SDS011;10399;50.754;3.366;2023-11-19T06:22:26;45.88;;;7.32;;
20480;SDS011;10399;50.754;3.366;2023-11-19T06:24:54;47.85;;;8.35;;
20480;SDS011;10399;50.754;3.366;2023-11-19T06:27:21;52.92;;;9.20;;
20480;SDS011;10399;50.754;3.366;2023-11-19T06:29:48;49.15;;;7.88;;
20480;SDS011;10399;50.754;3.366;2023-11-19T06:32:16;53.67;;;10.52;;
20480;SDS011;10399;50.754;3.366;2023-11-19T06:34:43;59.90;;;10.18;;
20480;SDS011;10399;50.754;3.366;2023-11-19T06:37:10;43.47;;;7.57;;
20480;SDS011;10399;50.754;3.366;2023-11-19T06:39:37;42.13;;;7.50;;
20480;SDS011;10399;50.754;3.366;2023-11-19T06:42:05;45.78;;;7.25;;
20480;SDS011;10399;50.754;3.366;2023-11-19T06:44:33;59.78;;;8.30;;
20480;SDS011;10399;50.754;3.366;2023-11-19T06:47:00;43.40;;;6.95;;
20480;SDS011;10399;50.754;3.366;2023-11-19T06:49:27;42.30;;;6.70;;
20480;SDS011;10399;50.754;3.366;2023-11-19T06:51:54;57.03;;;7.22;;
20480;SDS011;10399;50.754;3.366;2023-11-19T06:54:23;43.97;;;6.68;;
20480;SDS011;10399;50.754;3.366;2023-11-19T06:56:50;50.95;;;7.72;;
20480;SDS011;10399;50.754;3.366;2023-11-19T06:59:17;42.60;;;7.00;;
20480;SDS011;10399;50.754;3.366;2023-11-19T07:01:45;44.88;;;6.85;;
20480;SDS011;10399;50.754;3.366;2023-11-19T07:04:12;48.75;;;8.48;;
20480;SDS011;10399;50.754;3.366;2023-11-19T07:06:40;43.63;;;6.57;;
20480;SDS011;10399;50.754;3.366;2023-11-19T07:09:08;43.55;;;6.40;;
20480;SDS011;10399;50.754;3.366;2023-11-19T07:11:39;49.42;;;7.45;;
20480;SDS011;10399;50.754;3.366;2023-11-19T07:14:07;38.97;;;6.53;;
20480;SDS011;10399;50.754;3.366;2023-11-19T07:16:35;32.13;;;6.35;;
20480;SDS011;10399;50.754;3.366;2023-11-19T07:19:05;46.38;;;6.63;;
20480;SDS011;10399;50.754;3.366;2023-11-19T07:21:33;45.97;;;7.65;;
20480;SDS011;10399;50.754;3.366;2023-11-19T07:24:01;48.45;;;6.85;;
20480;SDS011;10399;50.754;3.366;2023-11-19T07:26:29;46.67;;;6.90;;
20480;SDS011;10399;50.754;3.366;2023-11-19T07:28:56;47.63;;;7.85;;
20480;SDS011;10399;50.754;3.366;2023-11-19T07:31:24;42.75;;;5.82;;
20480;SDS011;10399;50.754;3.366;2023-11-19T07:33:51;40.25;;;5.88;;
20480;SDS011;10399;50.754;3.366;2023-11-19T07:36:20;47.70;;;6.50;;
20480;SDS011;10399;50.754;3.366;2023-11-19T07:38:47;38.70;;;6.55;;
20480;SDS011;10399;50.754;3.366;2023-11-19T07:41:15;39.10;;;6.60;;
20480;SDS011;10399;50.754;3.366;2023-11-19T07:43:45;39.58;;;7.03;;
20480;SDS011;10399;50.754;3.366;2023-11-19T07:46:17;35.47;;;6.25;;
20480;SDS011;10399;50.754;3.366;2023-11-19T07:48:47;36.85;;;7.65;;
20480;SDS011;10399;50.754;3.366;2023-11-19T07:51:14;35.78;;;5.88;;
20480;SDS011;10399;50.754;3.366;2023-11-19T07:53:42;38.40;;;6.28;;
20480;SDS011;10399;50.754;3.366;2023-11-19T07:56:09;38.28;;;6.68;;
20480;SDS011;10399;50.754;3.366;2023-11-19T07:58:36;48.65;;;6.90;;
20480;SDS011;10399;50.754;3.366;2023-11-19T08:01:04;35.00;;;6.50;;
20480;SDS011;10399;50.754;3.366;2023-11-19T08:03:31;42.53;;;6.18;;
20480;SDS011;10399;50.754;3.366;2023-11-19T08:06:01;36.33;;;5.93;;
20480;SDS011;10399;50.754;3.366;2023-11-19T08:08:30;35.25;;;6.28;;
20480;SDS011;10399;50.754;3.366;2023-11-19T08:10:59;32.03;;;5.03;;
20480;SDS011;10399;50.754;3.366;2023-11-19T08:13:26;37.00;;;6.20;;
20480;SDS011;10399;50.754;3.366;2023-11-19T08:15:53;27.98;;;6.50;;
20480;SDS011;10399;50.754;3.366;2023-11-19T08:18:20;35.45;;;5.10;;
20480;SDS011;10399;50.754;3.366;2023-11-19T08:20:47;32.70;;;5.43;;
20480;SDS011;10399;50.754;3.366;2023-11-19T08:23:19;32.28;;;5.85;;
20480;SDS011;10399;50.754;3.366;2023-11-19T08:25:47;38.78;;;6.45;;
20480;SDS011;10399;50.754;3.366;2023-11-19T08:28:14;40.50;;;7.50;;
20480;SDS011;10399;50.754;3.366;2023-11-19T08:30:41;37.15;;;6.07;;
20480;SDS011;10399;50.754;3.366;2023-11-19T08:33:10;28.77;;;5.13;;
20480;SDS011;10399;50.754;3.366;2023-11-19T08:35:38;49.03;;;6.43;;
20480;SDS011;10399;50.754;3.366;2023-11-19T08:38:05;32.22;;;5.63;;
20480;SDS011;10399;50.754;3.366;2023-11-19T08:40:33;36.95;;;5.50;;
20480;SDS011;10399;50.754;3.366;2023-11-19T08:43:00;32.63;;;5.50;;
20480;SDS011;10399;50.754;3.366;2023-11-19T08:45:27;30.77;;;5.38;;
20480;SDS011;10399;50.754;3.366;2023-11-19T08:47:55;35.08;;;5.13;;
20480;SDS011;10399;50.754;3.366;2023-11-19T08:50:23;28.73;;;4.88;;
20480;SDS011;10399;50.754;3.366;2023-11-19T08:52:51;30.52;;;6.65;;
20480;SDS011;10399;50.754;3.366;2023-11-19T08:55:18;29.58;;;4.60;;
20480;SDS011;10399;50.754;3.366;2023-11-19T08:57:45;32.53;;;5.03;;
20480;SDS011;10399;50.754;3.366;2023-11-19T09:00:13;27.60;;;4.93;;
20480;SDS011;10399;50.754;3.366;2023-11-19T09:02:44;32.10;;;5.82;;
20480;SDS011;10399;50.754;3.366;2023-11-19T09:05:11;34.45;;;5.13;;
20480;SDS011;10399;50.754;3.366;2023-11-19T09:07:39;27.33;;;5.60;;
20480;SDS011;10399;50.754;3.366;2023-11-19T09:10:06;30.00;;;4.38;;
20480;SDS011;10399;50.754;3.366;2023-11-19T09:12:35;26.50;;;5.10;;
20480;SDS011;10399;50.754;3.366;2023-11-19T09:15:02;22.67;;;4.68;;
20480;SDS011;10399;50.754;3.366;2023-11-19T09:17:32;32.72;;;4.78;;
20480;SDS011;10399;50.754;3.366;2023-11-19T09:19:59;28.45;;;4.90;;
20480;SDS011;10399;50.754;3.366;2023-11-19T09:22:27;35.65;;;5.43;;
20480;SDS011;10399;50.754;3.366;2023-11-19T09:24:54;38.45;;;5.10;;
20480;SDS011;10399;50.754;3.366;2023-11-19T09:27:21;24.92;;;5.25;;
20480;SDS011;10399;50.754;3.366;2023-11-19T09:29:48;27.67;;;5.32;;
20480;SDS011;10399;50.754;3.366;2023-11-19T09:32:16;32.40;;;5.63;;
20480;SDS011;10399;50.754;3.366;2023-11-19T09:34:43;29.20;;;4.50;;
20480;SDS011;10399;50.754;3.366;2023-11-19T09:37:10;32.20;;;5.00;;
20480;SDS011;10399;50.754;3.366;2023-11-19T09:39:40;33.97;;;4.97;;
20480;SDS011;10399;50.754;3.366;2023-11-19T09:42:09;31.27;;;5.15;;
20480;SDS011;10399;50.754;3.366;2023-11-19T09:44:37;24.73;;;4.82;;
20480;SDS011;10399;50.754;3.366;2023-11-19T09:47:05;37.50;;;6.03;;
20480;SDS011;10399;50.754;3.366;2023-11-19T09:49:34;30.73;;;5.32;;
20480;SDS011;10399;50.754;3.366;2023-11-19T09:52:02;32.95;;;5.38;;
20480;SDS011;10399;50.754;3.366;2023-11-19T09:54:32;33.22;;;5.57;;
20480;SDS011;10399;50.754;3.366;2023-11-19T09:57:00;30.98;;;5.38;;
20480;SDS011;10399;50.754;3.366;2023-11-19T09:59:32;28.10;;;5.60;;
20480;SDS011;10399;50.754;3.366;2023-11-19T10:02:00;24.05;;;4.47;;
20480;SDS011;10399;50.754;3.366;2023-11-19T10:04:29;28.40;;;4.60;;
20480;SDS011;10399;50.754;3.366;2023-11-19T10:06:59;25.02;;;4.90;;
20480;SDS011;10399;50.754;3.366;2023-11-19T10:09:26;29.30;;;4.82;;
20480;SDS011;10399;50.754;3.366;2023-11-19T10:11:53;25.17;;;4.70;;
20480;SDS011;10399;50.754;3.366;2023-11-19T10:14:23;28.73;;;5.68;;
20480;SDS011;10399;50.754;3.366;2023-11-19T10:16:51;28.70;;;4.90;;
20480;SDS011;10399;50.754;3.366;2023-11-19T10:19:21;26.73;;;4.68;;
20480;SDS011;10399;50.754;3.366;2023-11-19T10:21:48;27.13;;;4.47;;
20480;SDS011;10399;50.754;3.366;2023-11-19T10:24:15;25.15;;;4.97;;
20480;SDS011;10399;50.754;3.366;2023-11-19T10:26:45;32.60;;;5.85;;
20480;SDS011;10399;50.754;3.366;2023-11-19T10:29:13;35.97;;;5.55;;
20480;SDS011;10399;50.754;3.366;2023-11-19T10:31:41;30.42;;;5.22;;
20480;SDS011;10399;50.754;3.366;2023-11-19T10:34:25;33.42;;;6.03;;
20480;SDS011;10399;50.754;3.366;2023-11-19T10:36:53;28.35;;;5.22;;
20480;SDS011;10399;50.754;3.366;2023-11-19T10:39:21;35.58;;;5.95;;
20480;SDS011;10399;50.754;3.366;2023-11-19T10:41:50;29.55;;;5.22;;
20480;SDS011;10399;50.754;3.366;2023-11-19T10:44:30;42.13;;;6.55;;
20480;SDS011;10399;50.754;3.366;2023-11-19T10:47:03;34.38;;;5.88;;
20480;SDS011;10399;50.754;3.366;2023-11-19T10:49:34;30.90;;;5.43;;
20480;SDS011;10399;50.754;3.366;2023-11-19T10:52:01;32.67;;;5.72;;
20480;SDS011;10399;50.754;3.366;2023-11-19T10:54:31;47.17;;;5.88;;
20480;SDS011;10399;50.754;3.366;2023-11-19T10:57:01;29.42;;;5.38;;
20480;SDS011;10399;50.754;3.366;2023-11-19T10:59:29;33.15;;;5.53;;
20480;SDS011;10399;50.754;3.366;2023-11-19T11:02:00;32.90;;;5.53;;
20480;SDS011;10399;50.754;3.366;2023-11-19T11:04:33;30.73;;;6.75;;
20480;SDS011;10399;50.754;3.366;2023-11-19T11:07:06;41.72;;;6.18;;
20480;SDS011;10399;50.754;3.366;2023-11-19T11:09:34;32.78;;;4.85;;
20480;SDS011;10399;50.754;3.366;2023-11-19T11:12:02;25.73;;;6.00;;
20480;SDS011;10399;50.754;3.366;2023-11-19T11:14:33;30.60;;;5.40;;
20480;SDS011;10399;50.754;3.366;2023-11-19T11:17:03;25.83;;;5.10;;
20480;SDS011;10399;50.754;3.366;2023-11-19T11:19:34;29.38;;;4.75;;
20480;SDS011;10399;50.754;3.366;2023-11-19T11:22:03;22.23;;;3.90;;
20480;SDS011;10399;50.754;3.366;2023-11-19T11:32:35;31.63;;;4.78;;
20480;SDS011;10399;50.754;3.366;2023-11-19T11:38:59;36.77;;;6.73;;
20480;SDS011;10399;50.754;3.366;2023-11-19T11:41:27;32.15;;;7.03;;
20480;SDS011;10399;50.754;3.366;2023-11-19T11:43:56;36.03;;;5.72;;
20480;SDS011;10399;50.754;3.366;2023-11-19T11:49:04;26.08;;;4.88;;
20480;SDS011;10399;50.754;3.366;2023-11-19T11:52:16;33.72;;;5.53;;
20480;SDS011;10399;50.754;3.366;2023-11-19T11:54:27;35.28;;;4.88;;
20480;SDS011;10399;50.754;3.366;2023-11-19T11:59:45;27.52;;;5.50;;
20480;SDS011;10399;50.754;3.366;2023-11-19T12:02:15;28.30;;;5.40;;
20480;SDS011;10399;50.754;3.366;2023-11-19T12:04:46;30.85;;;5.93;;
20480;SDS011;10399;50.754;3.366;2023-11-19T12:07:19;28.73;;;5.60;;
20480;SDS011;10399;50.754;3.366;2023-11-19T12:09:53;32.85;;;5.82;;
20480;SDS011;10399;50.754;3.366;2023-11-19T12:12:34;40.20;;;5.38;;
20480;SDS011;10399;50.754;3.366;2023-11-19T12:15:05;35.42;;;5.13;;
20480;SDS011;10399;50.754;3.366;2023-11-19T12:17:37;33.97;;;5.95;;
20480;SDS011;10399;50.754;3.366;2023-11-19T12:20:19;30.67;;;4.97;;
20480;SDS011;10399;50.754;3.366;2023-11-19T12:22:53;34.20;;;5.53;;
20480;SDS011;10399;50.754;3.366;2023-11-19T12:25:20;31.38;;;5.32;;
20480;SDS011;10399;50.754;3.366;2023-11-19T12:27:48;30.67;;;4.97;;
20480;SDS011;10399;50.754;3.366;2023-11-19T12:30:17;40.17;;;6.45;;
20480;SDS011;10399;50.754;3.366;2023-11-19T12:32:49;31.55;;;5.22;;
20480;SDS011;10399;50.754;3.366;2023-11-19T12:35:16;31.95;;;5.10;;
20480;SDS011;10399;50.754;3.366;2023-11-19T12:37:44;31.50;;;5.45;;
20480;SDS011;10399;50.754;3.366;2023-11-19T12:42:40;25.52;;;5.22;;
20480;SDS011;10399;50.754;3.366;2023-11-19T12:45:07;29.67;;;5.32;;
20480;SDS011;10399;50.754;3.366;2023-11-19T12:47:37;30.55;;;5.53;;
20480;SDS011;10399;50.754;3.366;2023-11-19T12:50:05;35.05;;;5.68;;
20480;SDS011;10399;50.754;3.366;2023-11-19T12:52:33;30.67;;;5.15;;
20480;SDS011;10399;50.754;3.366;2023-11-19T12:55:04;33.63;;;5.80;;
20480;SDS011;10399;50.754;3.366;2023-11-19T12:57:53;32.65;;;5.60;;
20480;SDS011;10399;50.754;3.366;2023-11-19T13:00:22;29.60;;;5.05;;
20480;SDS011;10399;50.754;3.366;2023-11-19T13:02:50;31.45;;;5.28;;
20480;SDS011;10399;50.754;3.366;2023-11-19T13:08:06;33.28;;;5.13;;
20480;SDS011;10399;50.754;3.366;2023-11-19T13:13:15;28.48;;;5.07;;
20480;SDS011;10399;50.754;3.366;2023-11-19T13:15:43;30.98;;;4.50;;
20480;SDS011;10399;50.754;3.366;2023-11-19T13:18:15;25.95;;;4.55;;
20480;SDS011;10399;50.754;3.366;2023-11-19T13:20:43;30.83;;;4.60;;
20480;SDS011;10399;50.754;3.366;2023-11-19T13:23:10;34.53;;;5.78;;
20480;SDS011;10399;50.754;3.366;2023-11-19T13:25:38;29.92;;;5.90;;
20480;SDS011;10399;50.754;3.366;2023-11-19T13:28:05;25.73;;;5.88;;
20480;SDS011;10399;50.754;3.366;2023-11-19T13:30:32;29.60;;;4.55;;
20480;SDS011;10399;50.754;3.366;2023-11-19T13:32:59;23.73;;;4.60;;
20480;SDS011;10399;50.754;3.366;2023-11-19T13:35:27;36.95;;;5.40;;
20480;SDS011;10399;50.754;3.366;2023-11-19T13:37:56;29.90;;;5.10;;
20480;SDS011;10399;50.754;3.366;2023-11-19T13:40:24;35.17;;;5.07;;
20480;SDS011;10399;50.754;3.366;2023-11-19T13:42:57;26.40;;;5.03;;
20480;SDS011;10399;50.754;3.366;2023-11-19T13:45:24;27.90;;;5.13;;
20480;SDS011;10399;50.754;3.366;2023-11-19T13:47:53;23.27;;;4.25;;
20480;SDS011;10399;50.754;3.366;2023-11-19T13:50:20;28.98;;;5.13;;
20480;SDS011;10399;50.754;3.366;2023-11-19T13:52:49;31.50;;;4.88;;
20480;SDS011;10399;50.754;3.366;2023-11-19T13:55:16;36.50;;;5.97;;
20480;SDS011;10399;50.754;3.366;2023-11-19T13:57:44;23.48;;;4.80;;
20480;SDS011;10399;50.754;3.366;2023-11-19T14:00:13;31.05;;;5.80;;
20480;SDS011;10399;50.754;3.366;2023-11-19T14:02:42;29.33;;;5.40;;
20480;SDS011;10399;50.754;3.366;2023-11-19T14:05:10;34.28;;;5.80;;
20480;SDS011;10399;50.754;3.366;2023-11-19T14:07:38;35.15;;;5.55;;
20480;SDS011;10399;50.754;3.366;2023-11-19T14:10:05;33.42;;;5.03;;
20480;SDS011;10399;50.754;3.366;2023-11-19T14:12:35;36.80;;;5.80;;
20480;SDS011;10399;50.754;3.366;2023-11-19T14:15:04;27.95;;;5.13;;
20480;SDS011;10399;50.754;3.366;2023-11-19T14:17:33;32.78;;;5.32;;
20480;SDS011;10399;50.754;3.366;2023-11-19T14:20:01;32.17;;;4.80;;
20480;SDS011;10399;50.754;3.366;2023-11-19T14:22:39;34.15;;;4.97;;
20480;SDS011;10399;50.754;3.366;2023-11-19T14:25:07;29.83;;;4.47;;
20480;SDS011;10399;50.754;3.366;2023-11-19T14:27:40;33.50;;;5.00;;
20480;SDS011;10399;50.754;3.366;2023-11-19T14:30:08;33.15;;;5.50;;
20480;SDS011;10399;50.754;3.366;2023-11-19T14:32:40;47.10;;;6.82;;
20480;SDS011;10399;50.754;3.366;2023-11-19T14:35:10;38.58;;;5.78;;
20480;SDS011;10399;50.754;3.366;2023-11-19T14:37:37;27.23;;;5.32;;
20480;SDS011;10399;50.754;3.366;2023-11-19T14:40:04;37.67;;;5.63;;
20480;SDS011;10399;50.754;3.366;2023-11-19T14:42:33;38.40;;;5.10;;
20480;SDS011;10399;50.754;3.366;2023-11-19T14:45:00;25.67;;;4.97;;
20480;SDS011;10399;50.754;3.366;2023-11-19T14:47:28;32.53;;;4.82;;
20480;SDS011;10399;50.754;3.366;2023-11-19T14:49:55;31.35;;;4.80;;
20480;SDS011;10399;50.754;3.366;2023-11-19T14:52:23;31.90;;;5.72;;
20480;SDS011;10399;50.754;3.366;2023-11-19T14:54:50;35.80;;;5.00;;
20480;SDS011;10399;50.754;3.366;2023-11-19T14:57:20;23.55;;;3.72;;
20480;SDS011;10399;50.754;3.366;2023-11-19T14:59:48;23.92;;;4.22;;
20480;SDS011;10399;50.754;3.366;2023-11-19T15:02:15;22.63;;;4.22;;
20480;SDS011;10399;50.754;3.366;2023-11-19T15:04:42;33.38;;;4.93;;
20480;SDS011;10399;50.754;3.366;2023-11-19T15:07:11;22.27;;;4.55;;
20480;SDS011;10399;50.754;3.366;2023-11-19T15:09:38;26.52;;;4.50;;